createdAt,value
2019-02-18T00:00:48.022Z,82.12
2019-02-18T00:03:19.931Z,82.11
2019-02-18T00:05:51.884Z,82.36
2019-02-18T00:08:23.707Z,82.04
2019-02-18T00:10:55.555Z,81.89
2019-02-18T00:13:27.489Z,81.97
2019-02-18T00:15:59.359Z,82.12
2019-02-18T00:18:31.290Z,82.00
2019-02-18T00:21:03.178Z,81.85
2019-02-18T00:23:35.105Z,81.70
2019-02-18T00:26:07.034Z,81.74
2019-02-18T00:28:39.862Z,81.90
2019-02-18T00:31:11.800Z,81.99
2019-02-18T00:33:43.690Z,82.10
2019-02-18T00:36:15.629Z,82.08
2019-02-18T00:38:47.426Z,82.30
2019-02-18T00:41:19.273Z,82.35
2019-02-18T00:43:52.255Z,82.79
2019-02-18T00:46:24.207Z,82.63
2019-02-18T00:48:56.097Z,82.59
2019-02-18T00:51:28.091Z,82.79
2019-02-18T00:53:59.975Z,82.48
2019-02-18T00:56:31.873Z,82.34
2019-02-18T00:59:03.763Z,82.40
2019-02-18T01:01:35.621Z,82.51
2019-02-18T01:04:07.480Z,82.72
2019-02-18T01:06:39.370Z,82.89
2019-02-18T01:09:11.253Z,82.94
2019-02-18T01:11:43.296Z,82.95
2019-02-18T01:14:15.105Z,82.75
2019-02-18T01:16:46.914Z,82.76
2019-02-18T01:19:18.849Z,82.80
2019-02-18T01:21:50.696Z,82.85
2019-02-18T01:24:22.468Z,82.97
2019-02-18T01:26:54.406Z,82.91
2019-02-18T01:29:26.234Z,83.14
2019-02-18T01:31:58.047Z,83.41
2019-02-18T01:34:29.869Z,83.55
2019-02-18T01:37:01.705Z,84.12
2019-02-18T01:39:33.589Z,84.26
2019-02-18T01:42:13.375Z,84.25
2019-02-18T01:44:49.632Z,83.82
2019-02-18T01:47:26.535Z,83.62
2019-02-18T01:50:13.668Z,83.42
2019-02-18T01:52:57.202Z,83.48
2019-02-18T01:55:38.584Z,83.51
2019-02-18T01:58:12.321Z,83.58
2019-02-18T02:00:51.061Z,83.76
2019-02-18T02:03:30.349Z,83.93
2019-02-18T02:06:21.154Z,83.94
2019-02-18T02:12:19.110Z,84.50
2019-02-18T02:14:58.689Z,84.98
2019-02-18T02:21:18.909Z,84.91
2019-02-18T02:25:41.232Z,85.09
2019-02-18T02:35:04.586Z,86.08
2019-02-18T02:37:46.308Z,86.56
2019-02-18T02:40:21.273Z,86.37
2019-02-18T02:43:03.151Z,86.68
2019-02-18T02:45:35.709Z,86.33
2019-02-18T02:48:08.401Z,86.28
2019-02-18T02:50:43.322Z,86.42
2019-02-18T02:53:22.259Z,86.53
2019-02-18T02:55:54.880Z,86.41
2019-02-18T02:58:30.714Z,85.94
2019-02-18T03:01:02.964Z,85.86
2019-02-18T03:03:34.814Z,86.13
2019-02-18T03:06:06.738Z,85.93
2019-02-18T03:08:40.332Z,85.44
2019-02-18T03:11:13.752Z,85.30
2019-02-18T03:13:48.832Z,85.15
2019-02-18T03:16:26.902Z,85.14
2019-02-18T03:19:00.200Z,85.20
2019-02-18T03:21:34.218Z,85.30
2019-02-18T03:24:09.326Z,85.56
2019-02-18T03:26:42.845Z,85.92
2019-02-18T03:30:24.513Z,86.18
2019-02-18T03:33:06.537Z,86.57
2019-02-18T03:35:44.597Z,87.45
2019-02-18T03:38:16.492Z,87.88
2019-02-18T03:40:48.324Z,87.73
2019-02-18T03:43:20.207Z,87.79
2019-02-18T03:45:52.043Z,87.92
2019-02-18T03:48:23.902Z,88.02
2019-02-18T03:50:55.820Z,88.07
2019-02-18T03:53:27.737Z,88.79
2019-02-18T03:55:59.783Z,88.70
2019-02-18T03:58:31.669Z,88.82
2019-02-18T04:01:03.498Z,89.27
2019-02-18T04:03:35.363Z,89.28
2019-02-18T04:06:07.265Z,89.11
2019-02-18T04:08:42.917Z,89.24
2019-02-18T04:11:12.683Z,89.09
2019-02-18T04:13:44.596Z,89.18
2019-02-18T04:16:16.411Z,89.13
2019-02-18T04:18:48.321Z,88.91
2019-02-18T04:21:20.151Z,89.31
2019-02-18T04:23:52.069Z,89.50
2019-02-18T04:26:23.943Z,89.63
2019-02-18T04:28:55.857Z,89.77
2019-02-18T04:31:27.783Z,89.75
2019-02-18T04:33:59.751Z,89.87
2019-02-18T04:36:31.734Z,89.63
2019-02-18T04:39:04.888Z,89.61
2019-02-18T04:41:37.234Z,89.69
2019-02-18T04:44:09.075Z,89.82
2019-02-18T04:46:40.908Z,89.94
2019-02-18T04:49:12.795Z,89.90
2019-02-18T04:51:44.795Z,89.83
2019-02-18T04:54:16.698Z,89.87
2019-02-18T04:56:48.554Z,89.98
2019-02-18T04:59:20.549Z,90.01
2019-02-18T05:01:52.353Z,90.03
2019-02-18T05:04:24.247Z,90.01
2019-02-18T05:06:56.088Z,89.85
2019-02-18T05:09:28.062Z,89.50
2019-02-18T05:11:59.932Z,89.19
2019-02-18T05:14:31.780Z,89.16
2019-02-18T05:17:03.723Z,89.12
2019-02-18T05:19:35.571Z,89.00
2019-02-18T05:22:07.529Z,88.89
2019-02-18T05:24:39.380Z,88.70
2019-02-18T05:27:11.233Z,88.71
2019-02-18T05:29:43.051Z,88.59
2019-02-18T05:32:14.955Z,88.48
2019-02-18T05:34:50.365Z,88.46
2019-02-18T05:37:22.411Z,88.55
2019-02-18T05:39:55.508Z,88.30
2019-02-18T05:42:27.939Z,88.46
2019-02-18T05:45:01.676Z,88.53
2019-02-18T05:47:33.861Z,88.52
2019-02-18T05:50:06.212Z,88.48
2019-02-18T05:52:38.279Z,88.37
2019-02-18T05:55:10.274Z,88.38
2019-02-18T05:57:42.189Z,88.46
2019-02-18T06:00:14.907Z,88.04
2019-02-18T06:02:46.947Z,87.80
2019-02-18T06:05:18.969Z,87.81
2019-02-18T06:07:51.086Z,87.46
2019-02-18T06:10:24.528Z,87.42
2019-02-18T06:12:56.526Z,87.30
2019-02-18T06:15:28.402Z,87.17
2019-02-18T06:18:00.287Z,87.04
2019-02-18T06:20:32.178Z,86.95
2019-02-18T06:23:04.063Z,86.94
2019-02-18T06:25:35.940Z,86.62
2019-02-18T06:28:07.777Z,86.26
2019-02-18T06:30:39.635Z,86.29
2019-02-18T06:33:11.495Z,85.94
2019-02-18T06:35:43.336Z,85.35
2019-02-18T06:38:15.223Z,85.10
2019-02-18T06:40:47.037Z,85.09
2019-02-18T06:43:18.886Z,84.56
2019-02-18T06:46:12.607Z,83.89
2019-02-18T06:48:48.762Z,83.41
2019-02-18T06:51:21.969Z,82.92
2019-02-18T06:53:53.845Z,82.67
2019-02-18T06:56:47.938Z,82.53
2019-02-18T06:59:25.398Z,82.16
2019-02-18T07:02:16.124Z,81.79
2019-02-18T07:04:57.467Z,81.80
2019-02-18T07:07:48.214Z,81.07
2019-02-18T07:10:25.851Z,81.09
2019-02-18T07:12:57.777Z,80.82
2019-02-18T07:15:29.782Z,81.03
2019-02-18T07:18:01.668Z,80.27
2019-02-18T07:20:33.504Z,79.75
2019-02-18T07:23:05.383Z,78.65
2019-02-18T07:25:37.254Z,77.95
2019-02-18T07:28:09.174Z,77.45
2019-02-18T07:30:41.082Z,77.26
2019-02-18T07:33:12.942Z,76.89
2019-02-18T07:35:45.854Z,76.64
2019-02-18T07:38:17.789Z,75.75
2019-02-18T07:40:49.662Z,75.75
2019-02-18T07:43:23.120Z,75.42
2019-02-18T07:45:55.246Z,74.64
2019-02-18T07:48:27.162Z,74.31
2019-02-18T07:50:59.150Z,74.60
2019-02-18T07:53:31.070Z,74.56
2019-02-18T07:56:02.968Z,74.79
2019-02-18T07:58:34.973Z,73.58
2019-02-18T08:01:06.922Z,72.90
2019-02-18T08:03:38.840Z,72.18
2019-02-18T08:06:10.786Z,72.29
2019-02-18T08:08:42.846Z,70.60
2019-02-18T08:11:14.886Z,69.91
2019-02-18T08:13:46.775Z,69.45
2019-02-18T08:16:18.668Z,69.02
2019-02-18T08:18:50.596Z,68.50
2019-02-18T08:21:22.526Z,68.80
2019-02-18T08:24:00.086Z,67.81
2019-02-18T08:26:28.190Z,66.83
2019-02-18T08:29:00.170Z,65.47
2019-02-18T08:31:32.159Z,65.17
2019-02-18T08:34:03.996Z,64.85
2019-02-18T08:36:37.718Z,64.15
2019-02-18T08:39:10.327Z,63.31
2019-02-18T08:41:42.368Z,62.38
2019-02-18T08:44:14.251Z,61.73
2019-02-18T08:46:46.374Z,61.89
2019-02-18T08:49:18.427Z,61.54
2019-02-18T08:51:51.413Z,62.49
2019-02-18T08:54:23.433Z,60.68
2019-02-18T08:56:55.323Z,61.46
2019-02-18T08:59:27.214Z,61.21
2019-02-18T09:01:59.209Z,59.95
2019-02-18T09:04:31.179Z,59.13
2019-02-18T09:07:03.089Z,58.08
2019-02-18T09:09:35.096Z,57.35
2019-02-18T09:12:07.177Z,56.87
2019-02-18T09:14:39.184Z,56.56
2019-02-18T09:17:11.093Z,56.80
2019-02-18T09:19:43.092Z,55.89
2019-02-18T09:22:46.327Z,55.67
2019-02-18T09:25:21.289Z,55.20
2019-02-18T09:27:53.657Z,54.81
2019-02-18T09:30:28.837Z,55.08
2019-02-18T09:33:00.822Z,56.08
2019-02-18T09:35:32.733Z,55.69
2019-02-18T09:38:04.741Z,55.81
2019-02-18T09:40:44.284Z,55.32
2019-02-18T09:43:10.401Z,54.45
2019-02-18T09:45:42.335Z,53.90
2019-02-18T09:48:14.555Z,53.87
2019-02-18T09:50:46.433Z,54.47
2019-02-18T09:53:18.470Z,53.89
2019-02-18T09:55:50.363Z,52.53
2019-02-18T09:58:22.280Z,51.89
2019-02-18T10:00:54.252Z,51.70
2019-02-18T10:03:32.019Z,50.77
2019-02-18T10:05:59.954Z,51.05
2019-02-18T10:08:31.927Z,50.77
2019-02-18T10:11:03.925Z,51.12
2019-02-18T10:13:42.124Z,50.81
2019-02-18T10:16:13.958Z,51.81
2019-02-18T10:18:45.886Z,50.43
2019-02-18T10:21:17.889Z,49.69
2019-02-18T10:23:50.200Z,49.50
2019-02-18T10:26:22.167Z,49.16
2019-02-18T10:28:55.273Z,50.00
2019-02-18T10:31:27.385Z,49.35
2019-02-18T10:34:01.726Z,49.92
2019-02-18T10:36:33.720Z,48.98
2019-02-18T10:39:09.885Z,49.90
2019-02-18T10:41:43.737Z,49.67
2019-02-18T10:44:15.791Z,49.26
2019-02-18T10:46:47.702Z,49.31
2019-02-18T10:49:21.947Z,48.72
2019-02-18T10:51:55.133Z,48.93
2019-02-18T10:54:27.001Z,48.95
2019-02-18T10:56:59.180Z,49.36
2019-02-18T10:59:39.865Z,48.55
2019-02-18T11:02:13.714Z,47.24
2019-02-18T11:04:47.412Z,47.50
2019-02-18T11:07:21.378Z,47.83
2019-02-18T11:09:54.627Z,47.92
2019-02-18T11:12:29.909Z,48.05
2019-02-18T11:15:02.129Z,48.10
2019-02-18T11:17:38.848Z,47.54
2019-02-18T11:20:10.068Z,46.96
2019-02-18T11:22:46.556Z,46.19
2019-02-18T11:25:20.288Z,46.87
2019-02-18T11:27:52.344Z,46.71
2019-02-18T11:30:24.891Z,45.76
2019-02-18T11:32:58.722Z,46.58
2019-02-18T11:35:36.765Z,46.60
2019-02-18T11:38:08.999Z,46.01
2019-02-18T11:40:43.035Z,46.89
2019-02-18T11:43:15.077Z,46.58
2019-02-18T11:45:47.154Z,45.51
2019-02-18T11:48:19.148Z,46.38
2019-02-18T11:50:51.105Z,46.19
2019-02-18T11:53:23.002Z,46.47
2019-02-18T11:55:54.969Z,45.78
2019-02-18T11:58:27.042Z,45.90
2019-02-18T12:00:59.016Z,44.74
2019-02-18T12:03:32.256Z,44.91
2019-02-18T12:06:04.261Z,44.18
2019-02-18T12:08:36.163Z,44.61
2019-02-18T12:11:08.164Z,44.28
2019-02-18T12:13:40.289Z,43.57
2019-02-18T12:16:12.376Z,44.05
2019-02-18T12:18:44.352Z,43.47
2019-02-18T12:21:17.293Z,43.77
2019-02-18T12:23:49.260Z,44.61
2019-02-18T12:26:21.140Z,44.53
2019-02-18T12:28:53.266Z,44.22
2019-02-18T12:31:25.300Z,43.59
2019-02-18T12:33:57.204Z,43.52
2019-02-18T12:36:29.298Z,43.58
2019-02-18T12:39:01.175Z,43.11
2019-02-18T12:41:35.065Z,43.37
2019-02-18T12:44:07.082Z,41.99
2019-02-18T12:46:39.082Z,42.86
2019-02-18T12:49:10.968Z,43.22
2019-02-18T12:51:42.924Z,42.92
2019-02-18T12:54:16.224Z,43.06
2019-02-18T12:56:48.324Z,43.01
2019-02-18T12:59:20.225Z,43.01
2019-02-18T13:01:52.327Z,42.91
2019-02-18T13:04:24.493Z,42.77
2019-02-18T13:06:56.740Z,42.49
2019-02-18T13:09:28.734Z,42.58
2019-02-18T13:12:00.586Z,42.59
2019-02-18T13:14:34.118Z,41.24
2019-02-18T13:17:06.181Z,41.88
2019-02-18T13:19:38.110Z,41.65
2019-02-18T13:22:10.232Z,41.78
2019-02-18T13:24:44.683Z,40.99
2019-02-18T13:27:17.861Z,40.83
2019-02-18T13:29:49.986Z,40.89
2019-02-18T13:32:22.278Z,41.71
2019-02-18T13:34:54.435Z,41.15
2019-02-18T13:37:26.322Z,40.64
2019-02-18T13:39:58.219Z,41.16
2019-02-18T13:42:30.226Z,40.41
2019-02-18T13:45:02.124Z,41.36
2019-02-18T13:47:34.063Z,41.36
2019-02-18T13:50:07.062Z,41.45
2019-02-18T13:52:39.087Z,40.48
2019-02-18T13:55:11.932Z,39.32
2019-02-18T13:57:44.357Z,39.82
2019-02-18T14:00:20.129Z,39.60
2019-02-18T14:02:52.483Z,39.96
2019-02-18T14:05:24.468Z,39.48
2019-02-18T14:07:56.404Z,39.61
2019-02-18T14:10:28.554Z,38.64
2019-02-18T14:13:00.414Z,38.52
2019-02-18T14:15:32.394Z,38.28
2019-02-18T14:18:04.311Z,39.63
2019-02-18T14:20:36.260Z,39.80
2019-02-18T14:23:08.211Z,39.10
2019-02-18T14:25:40.139Z,39.60
2019-02-18T14:28:12.241Z,40.13
2019-02-18T14:30:44.229Z,39.92
2019-02-18T14:33:18.039Z,38.83
2019-02-18T14:35:51.339Z,38.47
2019-02-18T14:38:23.301Z,38.65
2019-02-18T14:40:55.451Z,38.89
2019-02-18T14:43:27.445Z,37.65
2019-02-18T14:45:59.484Z,37.61
2019-02-18T14:48:31.564Z,38.64
2019-02-18T14:51:03.570Z,38.41
2019-02-18T14:53:35.733Z,38.56
2019-02-18T14:56:10.000Z,38.73
2019-02-18T14:58:41.907Z,37.96
2019-02-18T15:01:14.274Z,38.00
2019-02-18T15:03:46.274Z,37.69
2019-02-18T15:06:18.159Z,37.69
2019-02-18T15:08:50.079Z,37.74
2019-02-18T15:11:22.137Z,38.23
2019-02-18T15:13:53.974Z,37.66
2019-02-18T15:16:25.973Z,38.07
2019-02-18T15:18:58.150Z,38.30
2019-02-18T15:21:30.625Z,39.21
2019-02-18T15:24:02.640Z,38.84
2019-02-18T15:26:34.727Z,38.58
2019-02-18T15:29:15.471Z,39.38
2019-02-18T15:31:52.800Z,40.15
2019-02-18T15:34:41.276Z,40.08
2019-02-18T15:37:13.777Z,40.07
2019-02-18T15:39:48.673Z,39.13
2019-02-18T15:42:20.582Z,39.16
2019-02-18T15:44:52.738Z,39.86
2019-02-18T15:47:24.642Z,40.16
2019-02-18T15:49:58.802Z,39.70
2019-02-18T15:52:34.060Z,39.91
2019-02-18T15:55:05.907Z,40.63
2019-02-18T15:57:38.101Z,40.70
2019-02-18T16:00:15.265Z,40.46
2019-02-18T16:02:47.439Z,40.38
2019-02-18T16:05:19.302Z,41.16
2019-02-18T16:07:51.151Z,41.82
2019-02-18T16:10:23.054Z,42.32
2019-02-18T16:12:54.900Z,42.68
2019-02-18T16:15:27.179Z,42.95
2019-02-18T16:17:59.029Z,43.15
2019-02-18T16:20:34.358Z,43.11
2019-02-18T16:23:06.374Z,43.56
2019-02-18T16:25:38.486Z,44.06
2019-02-18T16:28:10.885Z,44.78
2019-02-18T16:30:42.818Z,45.26
2019-02-18T16:33:14.976Z,45.79
2019-02-18T16:35:47.530Z,45.60
2019-02-18T16:38:36.643Z,45.23
2019-02-18T16:41:10.473Z,44.93
2019-02-18T16:43:39.778Z,45.53
2019-02-18T16:46:12.338Z,45.83
2019-02-18T16:48:45.102Z,46.48
2019-02-18T16:51:17.638Z,47.35
2019-02-18T16:53:54.279Z,47.78
2019-02-18T16:56:38.031Z,48.16
2019-02-18T16:59:15.114Z,48.45
2019-02-18T17:01:47.700Z,49.20
2019-02-18T17:04:21.636Z,49.88
2019-02-18T17:06:55.481Z,50.07
2019-02-18T17:09:36.031Z,50.44
2019-02-18T17:12:41.643Z,50.56
2019-02-18T17:14:52.922Z,51.26
2019-02-18T17:17:27.922Z,51.67
2019-02-18T17:19:59.898Z,52.53
2019-02-18T17:22:31.985Z,51.06
2019-02-18T17:25:04.137Z,50.89
2019-02-18T17:27:45.253Z,51.23
2019-02-18T17:30:25.066Z,51.67
2019-02-18T17:32:58.885Z,52.16
2019-02-18T17:35:30.977Z,53.73
2019-02-18T17:38:04.177Z,53.83
2019-02-18T17:40:36.263Z,53.53
2019-02-18T17:43:16.077Z,53.40
2019-02-18T17:45:42.405Z,53.07
2019-02-18T17:48:14.258Z,53.36
2019-02-18T17:50:46.486Z,53.62
2019-02-18T17:53:18.569Z,53.71
2019-02-18T17:55:50.729Z,54.20
2019-02-18T17:58:23.840Z,54.88
2019-02-18T18:00:57.928Z,54.23
2019-02-18T18:03:31.420Z,54.61
2019-02-18T18:06:05.093Z,55.03
2019-02-18T18:08:37.274Z,56.09
2019-02-18T18:11:09.373Z,56.50
2019-02-18T18:13:44.156Z,56.25
2019-02-18T18:16:17.091Z,57.06
2019-02-18T18:18:55.085Z,56.70
2019-02-18T18:21:27.101Z,57.86
2019-02-18T18:24:01.799Z,56.94
2019-02-18T18:26:38.431Z,56.80
2019-02-18T18:29:17.214Z,56.86
2019-02-18T18:31:45.633Z,56.99
2019-02-18T18:34:21.112Z,57.46
2019-02-18T18:36:53.260Z,57.86
2019-02-18T18:39:25.205Z,58.17
2019-02-18T18:41:57.152Z,58.46
2019-02-18T18:44:29.041Z,59.12
2019-02-18T18:47:00.889Z,59.13
2019-02-18T18:49:35.561Z,59.93
2019-02-18T18:52:22.741Z,59.44
2019-02-18T18:54:54.754Z,59.65
2019-02-18T18:57:30.261Z,59.69
2019-02-18T19:00:02.189Z,60.58
2019-02-18T19:02:37.001Z,61.07
2019-02-18T19:05:14.579Z,60.92
2019-02-18T19:07:46.826Z,60.80
2019-02-18T19:10:18.870Z,60.80
2019-02-18T19:12:50.949Z,61.36
2019-02-18T19:15:23.010Z,60.92
2019-02-18T19:17:55.276Z,61.11
2019-02-18T19:20:27.277Z,61.29
2019-02-18T19:23:00.046Z,61.87
2019-02-18T19:25:32.101Z,61.86
2019-02-18T19:28:04.394Z,62.42
2019-02-18T19:30:36.588Z,62.36
2019-02-18T19:33:08.789Z,62.82
2019-02-18T19:35:40.910Z,62.63
2019-02-18T19:38:13.249Z,62.80
2019-02-18T19:40:45.377Z,63.40
2019-02-18T19:43:17.439Z,63.19
2019-02-18T19:45:49.514Z,63.33
2019-02-18T19:48:21.508Z,63.13
2019-02-18T19:50:53.542Z,63.34
2019-02-18T19:53:26.118Z,63.40
2019-02-18T19:55:58.105Z,63.77
2019-02-18T19:58:30.208Z,63.94
2019-02-18T20:01:02.256Z,64.17
2019-02-18T20:03:34.222Z,64.30
2019-02-18T20:06:06.698Z,64.39
2019-02-18T20:08:39.742Z,64.96
2019-02-18T20:11:12.099Z,64.87
2019-02-18T20:13:48.060Z,65.36
2019-02-18T20:16:20.608Z,65.08
2019-02-18T20:18:52.612Z,65.23
2019-02-18T20:21:24.689Z,65.43
2019-02-18T20:24:45.631Z,65.46
2019-02-18T20:27:16.500Z,65.93
2019-02-18T20:29:48.663Z,65.81
2019-02-18T20:32:20.819Z,66.00
2019-02-18T20:34:53.056Z,65.74
2019-02-18T20:37:25.426Z,65.87
2019-02-18T20:39:57.432Z,65.67
2019-02-18T20:42:30.465Z,65.87
2019-02-18T20:45:13.264Z,65.54
2019-02-18T20:47:48.620Z,65.90
2019-02-18T20:50:20.785Z,66.23
2019-02-18T20:52:53.012Z,66.12
2019-02-18T20:55:25.228Z,66.20
2019-02-18T20:57:57.369Z,66.12
2019-02-18T21:00:29.364Z,66.09
2019-02-18T21:03:01.572Z,66.16
2019-02-18T21:05:33.613Z,66.19
2019-02-18T21:08:05.714Z,66.63
2019-02-18T21:10:37.689Z,66.78
2019-02-18T21:13:09.682Z,66.37
2019-02-18T21:15:41.657Z,66.49
2019-02-18T21:18:13.920Z,66.68
2019-02-18T21:20:46.052Z,66.50
2019-02-18T21:23:18.097Z,66.43
2019-02-18T21:25:50.147Z,66.53
2019-02-18T21:28:22.113Z,66.73
2019-02-18T21:30:54.453Z,67.23
2019-02-18T21:33:26.378Z,66.88
2019-02-18T21:35:58.371Z,67.01
2019-02-18T21:38:30.297Z,67.33
2019-02-18T21:41:02.313Z,67.57
2019-02-18T21:43:34.417Z,67.43
2019-02-18T21:46:06.348Z,67.56
2019-02-18T21:48:38.308Z,67.43
2019-02-18T21:51:10.857Z,67.17
2019-02-18T21:53:42.766Z,67.30
2019-02-18T21:56:14.666Z,67.22
2019-02-18T21:58:46.487Z,67.23
2019-02-18T22:01:18.412Z,67.61
2019-02-18T22:03:50.268Z,67.61
2019-02-18T22:06:22.167Z,67.43
2019-02-18T22:08:54.123Z,67.58
2019-02-18T22:11:27.044Z,68.16
2019-02-18T22:13:59.043Z,68.35
2019-02-18T22:16:30.947Z,68.02
2019-02-18T22:19:02.821Z,67.99
2019-02-18T22:21:34.727Z,68.09
2019-02-18T22:24:06.623Z,68.15
2019-02-18T22:26:38.640Z,67.97
2019-02-18T22:29:10.511Z,68.28
2019-02-18T22:31:42.447Z,68.62
2019-02-18T22:34:14.360Z,68.73
2019-02-18T22:36:46.251Z,69.44
2019-02-18T22:39:18.205Z,69.68
2019-02-18T22:41:50.078Z,69.88
2019-02-18T22:44:21.931Z,69.71
2019-02-18T22:46:54.120Z,69.65
2019-02-18T22:49:25.974Z,69.60
2019-02-18T22:51:57.842Z,69.86
2019-02-18T22:54:29.817Z,69.91
2019-02-18T22:57:01.813Z,70.05
2019-02-18T22:59:34.039Z,70.00
2019-02-18T23:02:08.295Z,70.31
2019-02-18T23:04:40.379Z,70.20
2019-02-18T23:07:12.298Z,70.41
2019-02-18T23:09:44.208Z,70.28
2019-02-18T23:12:17.326Z,70.12
2019-02-18T23:14:50.660Z,70.26
2019-02-18T23:17:22.897Z,69.98
2019-02-18T23:19:54.769Z,70.01
2019-02-18T23:22:26.705Z,69.71
2019-02-18T23:24:58.630Z,69.17
2019-02-18T23:27:30.570Z,68.95
2019-02-18T23:30:02.486Z,68.93
2019-02-18T23:32:34.462Z,69.35
2019-02-18T23:35:06.620Z,69.57
2019-02-18T23:37:38.664Z,69.62
2019-02-18T23:40:10.498Z,69.80
2019-02-18T23:42:42.410Z,70.26
2019-02-18T23:45:14.419Z,70.29
2019-02-18T23:47:46.354Z,70.52
2019-02-18T23:50:18.246Z,70.12
2019-02-18T23:52:50.133Z,70.26
2019-02-18T23:55:21.974Z,70.44
2019-02-18T23:57:56.492Z,70.09
